Time;durP1;ratioP1;P1;durP2;ratioP2;P2;SDS_P1;SDS_P2;PMS_P1;PMS_P2;Temp;Humidity;BMP_temperature;BMP_pressure;BME280_temperature;BME280_humidity;BME280_pressure;Samples;Min_cycle;Max_cycle;Signal;HPM_P1;HPM_P2
2024/03/06 00:01:09;;;;;;;37.95;14.63;;;;;;;;;;6171494;28;20058;-81
2024/03/06 00:04:11;;;;;;;35.97;14.25;;;;;;;;;;6171863;28;20046;-80
2024/03/06 00:07:12;;;;;;;32.88;14.80;;;;;;;;;;6167442;28;20103;-81
2024/03/06 00:10:15;;;;;;;36.03;15.25;;;;;;;;;;6172136;28;20460;-80
2024/03/06 00:13:17;;;;;;;31.70;14.07;;;;;;;;;;6173353;28;20050;-81
2024/03/06 00:16:18;;;;;;;29.45;13.95;;;;;;;;;;6176578;28;20520;-81
2024/03/06 00:19:21;;;;;;;31.85;13.43;;;;;;;;;;6178255;28;20057;-81
2024/03/06 00:22:23;;;;;;;32.03;13.75;;;;;;;;;;6174992;28;20082;-80
2024/03/06 00:25:25;;;;;;;33.40;14.55;;;;;;;;;;6179440;28;20685;-80
2024/03/06 00:28:26;;;;;;;34.15;14.65;;;;;;;;;;6178540;28;20140;-79
2024/03/06 00:31:28;;;;;;;37.63;15.60;;;;;;;;;;6180990;28;20078;-81
2024/03/06 00:34:30;;;;;;;34.00;14.68;;;;;;;;;;6177220;28;20054;-82
2024/03/06 00:37:32;;;;;;;32.33;13.50;;;;;;;;;;6176358;28;20093;-83
2024/03/06 00:40:33;;;;;;;30.55;13.38;;;;;;;;;;6181412;28;20061;-80
2024/03/06 00:43:35;;;;;;;33.15;12.95;;;;;;;;;;6180647;28;20125;-80
2024/03/06 00:46:38;;;;;;;31.70;13.07;;;;;;;;;;6182843;28;20129;-81
2024/03/06 00:49:42;;;;;;;32.40;14.38;;;;;;;;;;6177467;28;20049;-80
2024/03/06 00:52:44;;;;;;;30.67;13.93;;;;;;;;;;6181669;28;20215;-81
2024/03/06 00:55:45;;;;;;;35.17;14.55;;;;;;;;;;6179181;28;20046;-81
2024/03/06 00:58:47;;;;;;;32.17;14.13;;;;;;;;;;6183178;28;20054;-79
2024/03/06 01:01:49;;;;;;;33.15;15.73;;;;;;;;;;6178423;28;20534;-80
2024/03/06 01:04:51;;;;;;;35.35;14.50;;;;;;;;;;6169515;28;20054;-80
2024/03/06 01:07:54;;;;;;;35.95;15.10;;;;;;;;;;6169665;28;20053;-77
2024/03/06 01:10:56;;;;;;;;;;;;;;;;;;6178271;28;20042;-79
2024/03/06 01:13:58;;;;;;;29.92;13.10;;;;;;;;;;6178779;28;20304;-78
2024/03/06 01:16:59;;;;;;;35.20;13.70;;;;;;;;;;6178200;28;20047;-79
2024/03/06 01:20:03;;;;;;;35.38;13.73;;;;;;;;;;6177924;28;20050;-77
2024/03/06 01:23:05;;;;;;;38.22;15.05;;;;;;;;;;6180473;28;20077;-78
2024/03/06 01:26:07;;;;;;;36.92;13.60;;;;;;;;;;6183697;28;20050;-80
2024/03/06 01:29:09;;;;;;;31.60;13.95;;;;;;;;;;6178314;28;20053;-79
2024/03/06 01:32:10;;;;;;;36.38;14.75;;;;;;;;;;6162658;28;20043;-77
2024/03/06 01:35:12;;;;;;;36.92;15.70;;;;;;;;;;6176097;28;20050;-79
2024/03/06 01:38:15;;;;;;;35.75;14.90;;;;;;;;;;6177562;28;20054;-79
2024/03/06 01:41:17;;;;;;;;;;;;;;;;;;6177800;28;20185;-79
2024/03/06 01:44:19;;;;;;;32.33;12.93;;;;;;;;;;6177851;28;19926;-77
2024/03/06 01:47:21;;;;;;;30.00;13.00;;;;;;;;;;6176804;28;20435;-78
2024/03/06 01:50:23;;;;;;;31.60;13.77;;;;;;;;;;6179644;28;20054;-80
2024/03/06 01:53:27;;;;;;;34.45;13.80;;;;;;;;;;6179183;28;20540;-80
2024/03/06 01:56:29;;;;;;;31.88;14.20;;;;;;;;;;6180666;28;20038;-80
2024/03/06 01:59:31;;;;;;;34.63;14.23;;;;;;;;;;6178523;28;20065;-81
2024/03/06 02:02:38;;;;;;;31.02;12.93;;;;;;;;;;6176100;28;20535;-78
2024/03/06 02:05:40;;;;;;;30.90;13.98;;;;;;;;;;6175391;28;20073;-80
2024/03/06 02:08:42;;;;;;;37.87;14.47;;;;;;;;;;6177517;28;20061;-78
2024/03/06 02:11:44;;;;;;;33.72;14.98;;;;;;;;;;6182541;28;20624;-80
2024/03/06 02:14:46;;;;;;;34.13;14.03;;;;;;;;;;6181168;28;20709;-80
2024/03/06 02:17:48;;;;;;;34.20;14.38;;;;;;;;;;6170571;28;20050;-79
2024/03/06 02:20:50;;;;;;;32.47;14.00;;;;;;;;;;6182821;28;20056;-77
2024/03/06 02:23:52;;;;;;;36.38;14.23;;;;;;;;;;6179157;28;20049;-79
2024/03/06 02:26:56;;;;;;;31.58;13.18;;;;;;;;;;6192743;28;20484;-80
2024/03/06 02:29:58;;;;;;;32.53;13.13;;;;;;;;;;6154878;28;20051;-78
2024/03/06 02:32:59;;;;;;;39.22;14.10;;;;;;;;;;6196660;28;20042;-78
2024/03/06 02:36:01;;;;;;;31.50;13.43;;;;;;;;;;6179353;28;20049;-78
2024/03/06 02:39:08;;;;;;;30.40;13.30;;;;;;;;;;6174893;28;20042;-80
2024/03/06 02:42:10;;;;;;;37.45;13.75;;;;;;;;;;6177559;28;20425;-79
2024/03/06 02:45:12;;;;;;;29.77;12.98;;;;;;;;;;6182808;28;20429;-77
2024/03/06 02:48:13;;;;;;;33.30;13.05;;;;;;;;;;6177490;28;20046;-80
2024/03/06 02:51:21;;;;;;;31.58;12.85;;;;;;;;;;6182868;28;20042;-80
2024/03/06 02:54:24;;;;;;;32.85;14.52;;;;;;;;;;6182759;28;20050;-80
2024/03/06 02:57:28;;;;;;;32.65;13.70;;;;;;;;;;6176649;28;20428;-78
2024/03/06 03:00:30;;;;;;;63.88;16.77;;;;;;;;;;6176619;28;20134;-79
2024/03/06 03:03:32;;;;;;;63.38;16.13;;;;;;;;;;6174736;28;20049;-80
2024/03/06 03:06:34;;;;;;;45.42;15.45;;;;;;;;;;6157452;28;20043;-81
2024/03/06 03:09:36;;;;;;;43.78;15.98;;;;;;;;;;6175042;28;20046;-80
2024/03/06 03:12:38;;;;;;;44.28;15.85;;;;;;;;;;6180084;28;20049;-79
2024/03/06 03:15:41;;;;;;;48.90;15.90;;;;;;;;;;6182821;28;20061;-80
2024/03/06 03:18:43;;;;;;;51.80;17.13;;;;;;;;;;6177172;28;20047;-81
2024/03/06 03:21:45;;;;;;;39.85;14.38;;;;;;;;;;6180522;28;20050;-80
2024/03/06 03:24:47;;;;;;;37.85;13.95;;;;;;;;;;6187261;28;20054;-79
2024/03/06 03:27:49;;;;;;;37.40;13.75;;;;;;;;;;6189667;28;20058;-81
2024/03/06 03:30:50;;;;;;;34.05;14.45;;;;;;;;;;6184616;28;20417;-80
2024/03/06 03:33:52;;;;;;;35.25;13.32;;;;;;;;;;6181471;28;20042;-77
2024/03/06 03:36:54;;;;;;;36.47;13.50;;;;;;;;;;6183819;28;20061;-81
2024/03/06 03:39:55;;;;;;;34.88;14.10;;;;;;;;;;6179494;28;20043;-81
2024/03/06 03:42:57;;;;;;;45.05;15.88;;;;;;;;;;6186007;28;20050;-80
2024/03/06 03:46:04;;;;;;;44.08;16.05;;;;;;;;;;6180692;28;20051;-80
2024/03/06 03:49:05;;;;;;;46.88;15.57;;;;;;;;;;6183669;28;20054;-80
2024/03/06 03:52:07;;;;;;;45.33;16.05;;;;;;;;;;6176883;28;20124;-79
2024/03/06 03:55:09;;;;;;;55.53;16.80;;;;;;;;;;6190234;28;20128;-79
2024/03/06 03:58:11;;;;;;;48.63;15.95;;;;;;;;;;6183151;28;20114;-79
2024/03/06 04:01:13;;;;;;;66.15;17.85;;;;;;;;;;6184498;28;20133;-80
2024/03/06 04:04:15;;;;;;;45.35;16.25;;;;;;;;;;6178044;28;20047;-81
2024/03/06 04:07:18;;;;;;;53.92;17.42;;;;;;;;;;6183510;28;20046;-80
2024/03/06 04:10:20;;;;;;;47.25;16.08;;;;;;;;;;6184527;28;20045;-80
2024/03/06 04:13:22;;;;;;;52.20;15.77;;;;;;;;;;6185632;28;21993;-80
2024/03/06 04:16:24;;;;;;;48.72;16.95;;;;;;;;;;6155291;28;20050;-80
2024/03/06 04:19:26;;;;;;;43.92;15.38;;;;;;;;;;6190457;28;20054;-76
2024/03/06 04:22:28;;;;;;;70.50;16.48;;;;;;;;;;6189679;28;20050;-80
2024/03/06 04:25:30;;;;;;;59.67;16.42;;;;;;;;;;6183431;28;20050;-80
2024/03/06 04:28:32;;;;;;;44.78;15.15;;;;;;;;;;6184227;28;20517;-80
2024/03/06 04:31:36;;;;;;;40.15;15.73;;;;;;;;;;6160504;28;20456;-80
2024/03/06 04:34:37;;;;;;;50.63;17.30;;;;;;;;;;6179463;28;20094;-80
2024/03/06 04:37:39;;;;;;;66.13;21.23;;;;;;;;;;6177284;28;20133;-80
2024/03/06 04:40:41;;;;;;;50.95;18.60;;;;;;;;;;6178140;28;20539;-79
2024/03/06 04:43:43;;;;;;;67.03;18.70;;;;;;;;;;6188281;28;20077;-79
2024/03/06 04:46:45;;;;;;;57.08;20.50;;;;;;;;;;6182559;28;20059;-79
2024/03/06 04:49:46;;;;;;;106.90;19.90;;;;;;;;;;6177650;28;20052;-79
2024/03/06 04:52:48;;;;;;;90.53;17.90;;;;;;;;;;6182622;28;20501;-79
2024/03/06 04:55:50;;;;;;;70.47;18.95;;;;;;;;;;6180953;28;20129;-79
2024/03/06 04:58:52;;;;;;;52.42;17.73;;;;;;;;;;6183527;28;20053;-78
2024/03/06 05:01:54;;;;;;;85.05;16.83;;;;;;;;;;6177259;28;20155;-80
2024/03/06 05:04:56;;;;;;;91.60;16.65;;;;;;;;;;6181479;28;20177;-78
2024/03/06 05:08:15;;;;;;;76.63;16.50;;;;;;;;;;6176732;28;20038;-81
2024/03/06 05:11:34;;;;;;;95.50;16.60;;;;;;;;;;6187369;28;20101;-77
2024/03/06 05:14:55;;;;;;;59.45;16.73;;;;;;;;;;6206387;28;20046;-78
2024/03/06 05:18:14;;;;;;;95.18;17.20;;;;;;;;;;6185039;28;20045;-80
2024/03/06 05:21:35;;;;;;;101.43;17.75;;;;;;;;;;6180255;28;20038;-80
2024/03/06 05:24:54;;;;;;;53.55;15.88;;;;;;;;;;6179777;28;20077;-80
2024/03/06 05:28:14;;;;;;;117.00;17.17;;;;;;;;;;6183006;28;20128;-81
2024/03/06 05:31:33;;;;;;;46.55;15.05;;;;;;;;;;6178677;28;20117;-77
2024/03/06 05:34:52;;;;;;;58.35;14.85;;;;;;;;;;6193374;28;20046;-79
2024/03/06 05:38:11;;;;;;;88.90;18.05;;;;;;;;;;6176892;28;20861;-80
2024/03/06 05:41:31;;;;;;;143.50;27.20;;;;;;;;;;6178861;28;20389;-79
2024/03/06 05:44:53;;;;;;;71.85;16.63;;;;;;;;;;6175054;28;20057;-79
2024/03/06 05:48:12;;;;;;;76.72;15.73;;;;;;;;;;6180513;28;20057;-77
2024/03/06 05:51:32;;;;;;;109.30;16.50;;;;;;;;;;6174509;28;20559;-79
2024/03/06 05:54:51;;;;;;;79.38;15.25;;;;;;;;;;6180900;28;20130;-80
2024/03/06 05:58:10;;;;;;;96.00;17.73;;;;;;;;;;6183311;28;20038;-79
2024/03/06 06:01:20;;;;;;;57.55;16.55;;;;;;;;;;6179825;28;20042;-80
2024/03/06 06:04:22;;;;;;;50.40;16.20;;;;;;;;;;6177559;28;20085;-80
2024/03/06 06:07:24;;;;;;;70.88;15.77;;;;;;;;;;6179379;28;20050;-82
2024/03/06 06:10:25;;;;;;;90.60;18.05;;;;;;;;;;6181307;28;20042;-80
2024/03/06 06:13:27;;;;;;;99.65;17.40;;;;;;;;;;6182792;28;20046;-82
2024/03/06 06:16:38;;;;;;;64.88;14.85;;;;;;;;;;6172435;28;20050;-80
2024/03/06 06:19:42;;;;;;;53.58;15.48;;;;;;;;;;6174537;28;20054;-80
2024/03/06 06:22:44;;;;;;;56.70;14.93;;;;;;;;;;6176119;28;20055;-82
2024/03/06 06:25:46;;;;;;;100.88;16.35;;;;;;;;;;6183086;28;20054;-82
2024/03/06 06:28:47;;;;;;;51.78;14.07;;;;;;;;;;6185073;28;20053;-81
2024/03/06 06:31:49;;;;;;;61.33;15.93;;;;;;;;;;6185166;28;20051;-82
2024/03/06 06:34:51;;;;;;;50.80;15.52;;;;;;;;;;6176649;28;20058;-81
2024/03/06 06:37:53;;;;;;;52.43;15.97;;;;;;;;;;6182377;28;20531;-81
2024/03/06 06:40:55;;;;;;;135.32;17.88;;;;;;;;;;6180340;28;20515;-81
2024/03/06 06:43:57;;;;;;;91.82;15.88;;;;;;;;;;6184422;28;20053;-81
2024/03/06 06:46:59;;;;;;;54.67;15.25;;;;;;;;;;6175631;28;20181;-80
2024/03/06 06:50:05;;;;;;;71.15;15.93;;;;;;;;;;6170367;28;20078;-82
2024/03/06 06:53:07;;;;;;;50.38;15.15;;;;;;;;;;6199088;28;20054;-79
2024/03/06 06:56:09;;;;;;;82.28;16.02;;;;;;;;;;6205102;28;20030;-79
2024/03/06 06:59:13;;;;;;;44.78;14.25;;;;;;;;;;6202208;28;20054;-79
2024/03/06 07:02:14;;;;;;;52.22;14.90;;;;;;;;;;6173450;28;20077;-80
2024/03/06 07:05:16;;;;;;;68.68;14.95;;;;;;;;;;6179084;28;20041;-82
2024/03/06 07:08:18;;;;;;;49.50;15.10;;;;;;;;;;6176328;28;20038;-82
2024/03/06 07:11:21;;;;;;;81.68;28.38;;;;;;;;;;6176561;28;20046;-81
2024/03/06 07:14:23;;;;;;;124.40;48.13;;;;;;;;;;6178908;28;20086;-80
2024/03/06 07:17:25;;;;;;;59.75;16.13;;;;;;;;;;6170664;28;20181;-81
2024/03/06 07:20:27;;;;;;;89.50;18.70;;;;;;;;;;6142558;28;20189;-80
2024/03/06 07:23:28;;;;;;;54.83;15.48;;;;;;;;;;6156699;28;20353;-84
2024/03/06 07:26:33;;;;;;;68.82;17.35;;;;;;;;;;6176982;28;20172;-81
2024/03/06 07:29:36;;;;;;;57.05;15.60;;;;;;;;;;6173892;28;20106;-79
2024/03/06 07:32:38;;;;;;;49.08;14.93;;;;;;;;;;6173154;28;20121;-80
2024/03/06 07:35:40;;;;;;;249.18;48.15;;;;;;;;;;6176730;28;20054;-79
2024/03/06 07:38:43;;;;;;;63.50;14.68;;;;;;;;;;6175425;28;20054;-78
2024/03/06 07:41:44;;;;;;;42.35;13.93;;;;;;;;;;6179496;28;20088;-79
2024/03/06 07:44:46;;;;;;;48.83;13.93;;;;;;;;;;6175049;28;20102;-81
2024/03/06 07:47:48;;;;;;;46.78;15.23;;;;;;;;;;6178723;28;20154;-81
2024/03/06 07:50:50;;;;;;;77.40;20.20;;;;;;;;;;6170734;28;20058;-82
2024/03/06 07:53:52;;;;;;;56.20;17.08;;;;;;;;;;6177249;28;20138;-80
2024/03/06 07:56:54;;;;;;;54.95;15.05;;;;;;;;;;6174293;28;20051;-81
2024/03/06 07:59:56;;;;;;;48.92;15.35;;;;;;;;;;6176623;28;20057;-80
2024/03/06 08:02:58;;;;;;;59.90;14.52;;;;;;;;;;6177441;28;20533;-82
2024/03/06 08:06:00;;;;;;;41.50;12.98;;;;;;;;;;6150527;28;20190;-79
2024/03/06 08:09:02;;;;;;;39.08;13.60;;;;;;;;;;6177049;28;20062;-80
2024/03/06 08:12:04;;;;;;;48.53;13.93;;;;;;;;;;6179137;28;20053;-80
2024/03/06 08:15:09;;;;;;;37.35;13.45;;;;;;;;;;6173644;28;20056;-82
2024/03/06 08:18:14;;;;;;;37.17;12.90;;;;;;;;;;6175254;28;20145;-81
2024/03/06 08:21:16;;;;;;;49.17;16.25;;;;;;;;;;6169813;28;20046;-80
2024/03/06 08:24:18;;;;;;;37.80;13.50;;;;;;;;;;6177590;28;20417;-81
2024/03/06 08:27:20;;;;;;;33.35;12.00;;;;;;;;;;6176500;28;20069;-81
2024/03/06 08:30:22;;;;;;;37.47;13.68;;;;;;;;;;6178754;28;20054;-81
2024/03/06 08:33:24;;;;;;;36.47;12.48;;;;;;;;;;6174755;28;20408;-81
2024/03/06 08:36:26;;;;;;;77.45;25.15;;;;;;;;;;6174141;28;20085;-83
2024/03/06 08:39:28;;;;;;;38.67;13.27;;;;;;;;;;6183742;28;20428;-82
2024/03/06 08:42:30;;;;;;;34.53;12.27;;;;;;;;;;6182083;28;20061;-82
2024/03/06 08:45:32;;;;;;;32.67;13.13;;;;;;;;;;6181266;28;20054;-81
2024/03/06 08:48:33;;;;;;;34.70;12.98;;;;;;;;;;6177585;28;20062;-82
2024/03/06 08:51:35;;;;;;;34.22;13.63;;;;;;;;;;6183182;28;20046;-82
2024/03/06 08:54:37;;;;;;;36.33;14.13;;;;;;;;;;6184120;28;20050;-84
2024/03/06 08:57:39;;;;;;;80.45;27.15;;;;;;;;;;6184593;28;20066;-82
2024/03/06 09:00:41;;;;;;;40.65;15.35;;;;;;;;;;6179968;28;20054;-82
2024/03/06 09:03:42;;;;;;;27.85;10.75;;;;;;;;;;6181507;28;20050;-83
2024/03/06 09:06:44;;;;;;;65.35;21.00;;;;;;;;;;6183528;28;20065;-81
2024/03/06 09:09:46;;;;;;;25.27;11.23;;;;;;;;;;6186287;28;20063;-81
2024/03/06 09:12:48;;;;;;;33.08;12.95;;;;;;;;;;6168034;28;20062;-83
2024/03/06 09:15:50;;;;;;;30.90;13.07;;;;;;;;;;6210901;28;20042;-80
2024/03/06 09:18:52;;;;;;;93.55;33.30;;;;;;;;;;6205268;28;20053;-80
2024/03/06 09:21:54;;;;;;;28.60;11.27;;;;;;;;;;6184301;28;20054;-82
2024/03/06 09:24:56;;;;;;;24.48;11.07;;;;;;;;;;6184223;28;20591;-85
2024/03/06 09:27:59;;;;;;;34.20;14.30;;;;;;;;;;6185291;28;20116;-83
2024/03/06 09:31:01;;;;;;;57.05;21.48;;;;;;;;;;6173926;28;20042;-84
2024/03/06 09:34:03;;;;;;;55.95;22.48;;;;;;;;;;6177002;28;20043;-82
2024/03/06 09:37:05;;;;;;;24.42;10.77;;;;;;;;;;6184711;28;20173;-83
2024/03/06 09:40:08;;;;;;;21.65;10.32;;;;;;;;;;6177559;28;20055;-83
2024/03/06 09:43:10;;;;;;;29.27;12.98;;;;;;;;;;6184547;28;20100;-82
2024/03/06 09:46:12;;;;;;;22.42;10.82;;;;;;;;;;6177633;28;20046;-83
2024/03/06 09:49:16;;;;;;;20.33;10.35;;;;;;;;;;6178779;28;20050;-82
2024/03/06 09:52:18;;;;;;;19.15;9.57;;;;;;;;;;6175059;28;20058;-83
2024/03/06 09:55:20;;;;;;;17.95;9.60;;;;;;;;;;6180361;28;20050;-84
2024/03/06 09:58:22;;;;;;;16.13;7.90;;;;;;;;;;6181248;28;20051;-84
2024/03/06 10:01:24;;;;;;;13.48;7.60;;;;;;;;;;6177767;28;20050;-84
2024/03/06 10:04:27;;;;;;;13.48;7.78;;;;;;;;;;6163141;28;20486;-83
2024/03/06 10:07:29;;;;;;;15.10;8.18;;;;;;;;;;6180828;28;20046;-83
2024/03/06 10:10:31;;;;;;;13.32;7.25;;;;;;;;;;6178902;28;20120;-82
2024/03/06 10:13:32;;;;;;;12.18;6.95;;;;;;;;;;6180911;28;20500;-83
2024/03/06 10:16:36;;;;;;;11.63;6.65;;;;;;;;;;6182441;28;20070;-81
2024/03/06 10:19:38;;;;;;;10.90;6.40;;;;;;;;;;6172378;28;20046;-82
2024/03/06 10:22:40;;;;;;;10.63;5.70;;;;;;;;;;6174287;28;20106;-82
2024/03/06 10:25:43;;;;;;;10.25;6.30;;;;;;;;;;6156873;28;20206;-83
2024/03/06 10:28:45;;;;;;;9.82;5.70;;;;;;;;;;6174880;28;20509;-83
2024/03/06 10:31:55;;;;;;;12.20;6.68;;;;;;;;;;6178341;28;20066;-82
2024/03/06 10:34:57;;;;;;;9.48;6.30;;;;;;;;;;6182913;28;20126;-83
2024/03/06 10:38:02;;;;;;;9.98;5.75;;;;;;;;;;6183388;28;20046;-84
2024/03/06 10:41:07;;;;;;;9.18;5.55;;;;;;;;;;6174030;28;20046;-83
2024/03/06 10:44:15;;;;;;;10.38;6.13;;;;;;;;;;6180443;28;20050;-84
2024/03/06 10:47:18;;;;;;;9.63;6.57;;;;;;;;;;6180021;28;20586;-84
2024/03/06 10:50:20;;;;;;;9.20;6.25;;;;;;;;;;6170226;28;20094;-86
2024/03/06 10:53:26;;;;;;;10.20;6.40;;;;;;;;;;6156934;28;20054;-85
2024/03/06 10:56:30;;;;;;;10.27;6.30;;;;;;;;;;6180727;28;20050;-83
2024/03/06 10:59:34;;;;;;;9.82;6.03;;;;;;;;;;6176661;28;21700;-84
2024/03/06 11:02:37;;;;;;;10.75;6.43;;;;;;;;;;6173693;28;20104;-83
2024/03/06 11:05:40;;;;;;;;;;;;;;;;;;6181453;28;20049;-84
2024/03/06 11:08:42;;;;;;;10.63;6.07;;;;;;;;;;6184258;28;20030;-84
2024/03/06 11:11:54;;;;;;;9.95;5.78;;;;;;;;;;6177647;28;20424;-84
2024/03/06 11:14:55;;;;;;;9.95;6.38;;;;;;;;;;6178762;28;20053;-83
2024/03/06 11:17:57;;;;;;;9.95;6.20;;;;;;;;;;6177553;28;20072;-83
2024/03/06 11:21:04;;;;;;;9.25;5.88;;;;;;;;;;6177088;28;20102;-83
2024/03/06 11:24:15;;;;;;;10.57;5.97;;;;;;;;;;6182057;28;20051;-82
2024/03/06 11:27:17;;;;;;;9.38;5.85;;;;;;;;;;6190872;28;20066;-83
2024/03/06 11:30:21;;;;;;;8.63;4.97;;;;;;;;;;6183048;28;20043;-84
2024/03/06 11:33:23;;;;;;;7.40;4.82;;;;;;;;;;6182982;28;20106;-84
2024/03/06 11:36:28;;;;;;;7.50;4.70;;;;;;;;;;6183337;28;20500;-82
2024/03/06 11:39:36;;;;;;;8.05;4.88;;;;;;;;;;6194062;28;20057;-82
2024/03/06 11:42:41;;;;;;;7.68;4.57;;;;;;;;;;6181475;28;20049;-82
2024/03/06 11:45:46;;;;;;;6.35;4.68;;;;;;;;;;6171347;28;20090;-83
2024/03/06 11:48:55;;;;;;;8.90;5.40;;;;;;;;;;6165327;28;20047;-83
2024/03/06 11:51:58;;;;;;;9.55;5.05;;;;;;;;;;6180325;28;20188;-84
2024/03/06 11:55:00;;;;;;;7.85;4.68;;;;;;;;;;6177576;28;20054;-83
2024/03/06 11:58:03;;;;;;;8.70;5.22;;;;;;;;;;6176162;28;20050;-82
2024/03/06 12:01:04;;;;;;;9.18;5.28;;;;;;;;;;6175742;28;20047;-84
2024/03/06 12:04:06;;;;;;;6.55;4.60;;;;;;;;;;6178032;28;20058;-83
2024/03/06 12:07:08;;;;;;;7.65;5.07;;;;;;;;;;6182262;28;20058;-83
2024/03/06 12:10:11;;;;;;;10.05;5.10;;;;;;;;;;6184066;28;20101;-84
2024/03/06 12:13:13;;;;;;;9.20;5.72;;;;;;;;;;6184720;28;20064;-82
2024/03/06 12:16:15;;;;;;;10.27;5.10;;;;;;;;;;6185300;28;20050;-84
2024/03/06 12:19:17;;;;;;;9.10;5.10;;;;;;;;;;6187009;28;20085;-82
2024/03/06 12:22:19;;;;;;;11.35;6.80;;;;;;;;;;6188454;28;20046;-83
2024/03/06 12:25:22;;;;;;;13.02;6.28;;;;;;;;;;6191165;28;20054;-83
2024/03/06 12:28:24;;;;;;;;;;;;;;;;;;6184468;28;20044;-84
2024/03/06 12:31:25;;;;;;;10.50;5.68;;;;;;;;;;6188472;28;19953;-84
2024/03/06 12:34:28;;;;;;;9.07;5.35;;;;;;;;;;6188955;28;20473;-84
2024/03/06 12:37:33;;;;;;;10.43;5.50;;;;;;;;;;6180235;28;20132;-84
2024/03/06 12:40:37;;;;;;;9.95;5.75;;;;;;;;;;6189309;28;20407;-83
2024/03/06 12:43:39;;;;;;;12.15;7.50;;;;;;;;;;6192567;28;20047;-84
2024/03/06 12:46:41;;;;;;;41.20;21.10;;;;;;;;;;6190955;28;20046;-84
2024/03/06 12:49:43;;;;;;;9.20;5.40;;;;;;;;;;6181448;28;20062;-82
2024/03/06 12:52:45;;;;;;;10.38;5.65;;;;;;;;;;6185660;28;20054;-84
2024/03/06 12:55:48;;;;;;;10.90;7.05;;;;;;;;;;6202377;28;20038;-84
2024/03/06 12:58:49;;;;;;;10.37;6.10;;;;;;;;;;6223737;28;20045;-83
2024/03/06 13:01:52;;;;;;;13.90;7.57;;;;;;;;;;6204530;28;20096;-82
2024/03/06 13:04:54;;;;;;;15.43;7.75;;;;;;;;;;6194945;28;20146;-84
2024/03/06 13:07:55;;;;;;;34.90;17.92;;;;;;;;;;6187671;28;20038;-82
2024/03/06 13:10:57;;;;;;;58.92;26.00;;;;;;;;;;6185844;28;20058;-85
2024/03/06 13:14:00;;;;;;;71.28;31.58;;;;;;;;;;6184218;28;20822;-82
2024/03/06 13:17:03;;;;;;;47.97;22.67;;;;;;;;;;6184399;28;20130;-83
2024/03/06 13:20:09;;;;;;;24.88;12.77;;;;;;;;;;6182455;28;20520;-82
2024/03/06 13:23:11;;;;;;;11.40;6.05;;;;;;;;;;6180489;28;20064;-83
2024/03/06 13:26:13;;;;;;;11.55;7.70;;;;;;;;;;6179484;28;20424;-87
2024/03/06 13:29:16;;;;;;;11.07;6.00;;;;;;;;;;6176791;28;20057;-89
2024/03/06 13:32:19;;;;;;;10.60;6.18;;;;;;;;;;6185446;28;20049;-83
2024/03/06 13:35:21;;;;;;;10.60;7.20;;;;;;;;;;6180487;28;20133;-84
2024/03/06 13:38:22;;;;;;;13.40;8.50;;;;;;;;;;6187570;28;20061;-83
2024/03/06 13:41:25;;;;;;;9.57;5.45;;;;;;;;;;6181994;28;20086;-84
2024/03/06 13:44:30;;;;;;;10.80;6.20;;;;;;;;;;6182311;28;20051;-84
2024/03/06 13:47:31;;;;;;;9.75;5.40;;;;;;;;;;6178026;28;20042;-82
2024/03/06 13:50:33;;;;;;;9.18;5.70;;;;;;;;;;6181362;28;20137;-83
2024/03/06 13:53:35;;;;;;;8.90;5.32;;;;;;;;;;6153294;28;20083;-83
2024/03/06 13:56:37;;;;;;;12.13;7.45;;;;;;;;;;6175867;28;20055;-82
2024/03/06 13:59:39;;;;;;;7.97;4.57;;;;;;;;;;6186747;28;20049;-83
2024/03/06 14:02:41;;;;;;;9.45;6.07;;;;;;;;;;6184565;28;20098;-83
2024/03/06 14:05:43;;;;;;;7.88;5.13;;;;;;;;;;6186824;28;20042;-83
2024/03/06 14:08:45;;;;;;;10.13;5.90;;;;;;;;;;6197551;28;20106;-84
2024/03/06 14:11:47;;;;;;;10.60;6.30;;;;;;;;;;6190420;28;20162;-83
2024/03/06 14:14:48;;;;;;;9.17;4.73;;;;;;;;;;6194709;28;20535;-83
2024/03/06 14:17:54;;;;;;;10.77;6.65;;;;;;;;;;6191404;28;20344;-82
2024/03/06 14:20:55;;;;;;;7.78;5.25;;;;;;;;;;6190690;28;20054;-83
2024/03/06 14:24:03;;;;;;;7.43;5.00;;;;;;;;;;6184151;28;20053;-81
2024/03/06 14:27:06;;;;;;;8.23;5.35;;;;;;;;;;6177221;28;20082;-84
2024/03/06 14:30:08;;;;;;;9.00;5.22;;;;;;;;;;6170926;28;20057;-81
2024/03/06 14:33:10;;;;;;;7.63;4.75;;;;;;;;;;6175215;28;20133;-82
2024/03/06 14:36:12;;;;;;;7.80;4.65;;;;;;;;;;6194177;28;20038;-78
2024/03/06 14:39:14;;;;;;;6.90;4.82;;;;;;;;;;6202025;28;20051;-82
2024/03/06 14:42:16;;;;;;;7.65;4.55;;;;;;;;;;6194581;28;20063;-81
2024/03/06 14:45:18;;;;;;;9.15;4.43;;;;;;;;;;6210469;28;20046;-82
2024/03/06 14:48:19;;;;;;;8.13;3.92;;;;;;;;;;6197736;28;20054;-82
2024/03/06 14:51:22;;;;;;;6.35;3.78;;;;;;;;;;6185694;28;20046;-81
2024/03/06 14:54:25;;;;;;;6.67;4.40;;;;;;;;;;6174332;28;20038;-80
2024/03/06 14:57:27;;;;;;;6.68;4.10;;;;;;;;;;6165092;28;20101;-86
2024/03/06 15:00:29;;;;;;;7.68;5.05;;;;;;;;;;6166386;28;20050;-83
2024/03/06 15:03:30;;;;;;;9.18;4.70;;;;;;;;;;6166916;28;20043;-86
2024/03/06 15:06:33;;;;;;;8.00;4.70;;;;;;;;;;6173939;28;20081;-84
2024/03/06 15:09:34;;;;;;;8.75;4.60;;;;;;;;;;6179381;28;20046;-86
2024/03/06 15:12:38;;;;;;;11.05;5.32;;;;;;;;;;6187024;28;20509;-86
2024/03/06 15:15:40;;;;;;;11.60;6.82;;;;;;;;;;6183522;28;20046;-84
2024/03/06 15:18:42;;;;;;;8.75;5.72;;;;;;;;;;6173183;28;20047;-83
2024/03/06 15:21:44;;;;;;;8.93;5.25;;;;;;;;;;6168503;28;20074;-85
2024/03/06 15:24:46;;;;;;;10.05;5.20;;;;;;;;;;6169264;28;20089;-85
2024/03/06 15:27:47;;;;;;;9.15;4.95;;;;;;;;;;6172308;28;20050;-85
2024/03/06 15:30:50;;;;;;;11.20;5.60;;;;;;;;;;6165986;28;20069;-84
2024/03/06 15:33:56;;;;;;;9.68;5.18;;;;;;;;;;6168992;28;20097;-84
2024/03/06 15:36:57;;;;;;;9.18;5.68;;;;;;;;;;6173679;28;20085;-84
2024/03/06 15:40:00;;;;;;;11.38;6.25;;;;;;;;;;6169165;28;20190;-85
2024/03/06 15:43:03;;;;;;;10.25;5.82;;;;;;;;;;6166838;28;20045;-84
2024/03/06 15:46:04;;;;;;;;;;;;;;;;;;6166048;28;20054;-85
2024/03/06 15:49:20;;;;;;;11.45;6.07;;;;;;;;;;6166573;28;19926;-84
2024/03/06 15:52:22;;;;;;;9.95;5.57;;;;;;;;;;6173989;28;20046;-84
2024/03/06 15:55:24;;;;;;;11.10;5.80;;;;;;;;;;6168154;28;20519;-85
2024/03/06 15:58:25;;;;;;;9.85;5.65;;;;;;;;;;6172386;28;20049;-85
2024/03/06 16:01:27;;;;;;;10.05;5.65;;;;;;;;;;6174526;28;20061;-84
2024/03/06 16:04:29;;;;;;;10.32;5.68;;;;;;;;;;6173834;28;20049;-85
2024/03/06 16:07:31;;;;;;;10.45;6.50;;;;;;;;;;6171107;28;20050;-83
2024/03/06 16:10:36;;;;;;;11.00;5.43;;;;;;;;;;6178132;28;20080;-84
2024/03/06 16:13:38;;;;;;;11.98;6.55;;;;;;;;;;6176041;28;20046;-84
2024/03/06 16:16:41;;;;;;;10.98;6.15;;;;;;;;;;6176093;28;20054;-84
2024/03/06 16:19:43;;;;;;;10.57;5.97;;;;;;;;;;6158097;28;20050;-86
2024/03/06 16:22:47;;;;;;;13.40;6.90;;;;;;;;;;6177524;28;20050;-84
2024/03/06 16:25:50;;;;;;;12.50;6.55;;;;;;;;;;6174642;28;20058;-85
2024/03/06 16:28:52;;;;;;;13.65;6.60;;;;;;;;;;6179400;28;20049;-83
2024/03/06 16:31:55;;;;;;;13.32;6.97;;;;;;;;;;6191509;28;20038;-85
2024/03/06 16:34:57;;;;;;;16.37;7.13;;;;;;;;;;6211022;28;20037;-82
2024/03/06 16:37:59;;;;;;;12.88;7.03;;;;;;;;;;6187042;28;21015;-83
2024/03/06 16:41:00;;;;;;;16.77;7.55;;;;;;;;;;6178820;28;20111;-83
2024/03/06 16:44:03;;;;;;;18.90;8.57;;;;;;;;;;6175341;28;20050;-86
2024/03/06 16:47:06;;;;;;;19.20;8.98;;;;;;;;;;6176546;28;20039;-83
2024/03/06 16:50:08;;;;;;;20.15;9.23;;;;;;;;;;6174470;28;20046;-82
2024/03/06 16:53:10;;;;;;;24.50;11.67;;;;;;;;;;6175632;28;20062;-83
2024/03/06 16:56:12;;;;;;;25.00;10.82;;;;;;;;;;6172674;28;20042;-82
2024/03/06 16:59:14;;;;;;;24.65;10.85;;;;;;;;;;6172311;28;20054;-83
2024/03/06 17:02:15;;;;;;;26.05;10.35;;;;;;;;;;6174457;28;20460;-82
2024/03/06 17:05:17;;;;;;;26.08;11.05;;;;;;;;;;6178915;28;20046;-82
2024/03/06 17:08:19;;;;;;;23.25;10.88;;;;;;;;;;6180539;28;20065;-82
2024/03/06 17:11:21;;;;;;;27.60;11.48;;;;;;;;;;6178112;28;20058;-83
2024/03/06 17:14:23;;;;;;;24.55;10.50;;;;;;;;;;6150137;28;20061;-83
2024/03/06 17:17:24;;;;;;;29.38;12.15;;;;;;;;;;6173724;28;20042;-83
2024/03/06 17:20:26;;;;;;;29.73;12.18;;;;;;;;;;6175463;28;20129;-82
2024/03/06 17:23:28;;;;;;;31.38;12.93;;;;;;;;;;6176309;28;20128;-79
2024/03/06 17:26:31;;;;;;;30.48;12.73;;;;;;;;;;6183833;28;20050;-79
2024/03/06 17:29:33;;;;;;;;;;;;;;;;;;6171337;28;20053;-82
2024/03/06 17:32:35;;;;;;;27.30;12.25;;;;;;;;;;6180184;28;20292;-80
2024/03/06 17:35:37;;;;;;;30.65;13.07;;;;;;;;;;6180457;28;20050;-78
2024/03/06 17:38:41;;;;;;;30.05;13.57;;;;;;;;;;6181390;28;20420;-82
2024/03/06 17:41:43;;;;;;;34.53;16.65;;;;;;;;;;6174954;28;20049;-79
2024/03/06 17:44:45;;;;;;;61.92;24.45;;;;;;;;;;6179637;28;20421;-82
2024/03/06 17:47:47;;;;;;;42.65;18.05;;;;;;;;;;6175704;28;20133;-84
2024/03/06 17:50:49;;;;;;;29.52;12.95;;;;;;;;;;6177061;28;20050;-81
2024/03/06 17:53:51;;;;;;;28.13;12.02;;;;;;;;;;6175627;28;20540;-83
2024/03/06 17:56:55;;;;;;;30.23;11.35;;;;;;;;;;6179106;28;20189;-82